首页
METAR-TAF:

METAR-TAF

机场 :

科纳克里国际机场

科納克里, 几内亚

纬度: 09-34N, 经度: 013-37W, 海拔: 26米

当前天气观测

该预报发布于7小时和29分钟前的20:00 UTC
风速8节,风向西转西北
温度 27°C
湿度 79%
气压 1011 hPa
能见度10公里或以上
散云层高于11000英尺

METAR: GUCY 242000Z 29008KT 9999 SCT110 27/23 Q1011 NOSIG

时间: 03:29 (03:29 UTC)

预报

该预报发布于10小时和29分钟前的17:00 UTC
预报有效从24日的 18点(UTC)到 25日的 24点(UTC)
风速8节,风向西
能见度10公里或以上
少量云层高于1500英尺
散云层高于11000英尺
几率 30% :
短暂存在
从 25日的 02点(UTC)到 25日的 05点(UTC)
风速2节,风向多变
能见度10公里或以上
1500米以下无云,无积雨云

TAF: GUCY 241700Z 2418/2524 28008KT 9999 FEW015 SCT110 PROB30 TEMPO 2502/2505 VRB02KT CAVOK

超过4000个机场的气象观测和天气预报(METAR&TAF报告)。

可查询的气象台以黄色和红色小点在地图上表示。

将鼠标移到小点上方,可查看气象台名称。

然后点击查看天气观测和预报。

如需切换地图:点击带黑十字的绿色按钮放大地图;点击带横线的绿色按钮缩小地图;或者点击绿色箭头查看邻近地区的地图。


METAR-TAF: